sensor_id;sensor_type;location;lat;lon;timestamp;pressure;altitude;pressure_sealevel;temperature;humidity
75895;BME280;64573;50.328;15.014;2023-05-07T00:01:49;99124.72;;;6.87;95.29
75895;BME280;64573;50.328;15.014;2023-05-07T00:04:14;99121.72;;;6.82;95.30
75895;BME280;64573;50.328;15.014;2023-05-07T00:06:39;99118.22;;;6.81;95.71
75895;BME280;64573;50.328;15.014;2023-05-07T00:09:06;99118.97;;;6.74;95.88
75895;BME280;64573;50.328;15.014;2023-05-07T00:11:32;99115.41;;;7.09;95.38
75895;BME280;64573;50.328;15.014;2023-05-07T00:13:57;99110.97;;;6.74;95.73
75895;BME280;64573;50.328;15.014;2023-05-07T00:16:23;99110.88;;;6.83;96.07
75895;BME280;64573;50.328;15.014;2023-05-07T00:18:48;99112.34;;;6.78;96.51
75895;BME280;64573;50.328;15.014;2023-05-07T00:21:13;99107.63;;;6.72;96.50
75895;BME280;64573;50.328;15.014;2023-05-07T00:23:39;99114.03;;;6.61;96.72
75895;BME280;64573;50.328;15.014;2023-05-07T00:26:04;99112.03;;;6.63;96.65
75895;BME280;64573;50.328;15.014;2023-05-07T00:28:30;99118.72;;;6.85;97.03
75895;BME280;64573;50.328;15.014;2023-05-07T00:30:55;99124.88;;;7.03;97.01
75895;BME280;64573;50.328;15.014;2023-05-07T00:33:21;99118.72;;;6.85;96.98
75895;BME280;64573;50.328;15.014;2023-05-07T00:35:47;99113.66;;;6.74;96.82
75895;BME280;64573;50.328;15.014;2023-05-07T00:38:12;99113.88;;;6.62;96.73
75895;BME280;64573;50.328;15.014;2023-05-07T00:40:38;99121.16;;;6.78;97.06
75895;BME280;64573;50.328;15.014;2023-05-07T00:43:03;99121.38;;;6.85;97.08
75895;BME280;64573;50.328;15.014;2023-05-07T00:45:29;99128.31;;;6.96;97.35
75895;BME280;64573;50.328;15.014;2023-05-07T00:47:56;99124.00;;;6.77;96.96
75895;BME280;64573;50.328;15.014;2023-05-07T00:50:22;99113.25;;;6.69;96.88
75895;BME280;64573;50.328;15.014;2023-05-07T00:52:48;99122.47;;;6.74;96.91
75895;BME280;64573;50.328;15.014;2023-05-07T00:55:14;99120.03;;;6.81;96.66
75895;BME280;64573;50.328;15.014;2023-05-07T00:57:40;99127.03;;;6.82;97.00
75895;BME280;64573;50.328;15.014;2023-05-07T01:00:07;99120.09;;;6.71;96.93
75895;BME280;64573;50.328;15.014;2023-05-07T01:02:34;99124.63;;;6.53;96.83
75895;BME280;64573;50.328;15.014;2023-05-07T01:05:00;99129.94;;;6.53;96.39
75895;BME280;64573;50.328;15.014;2023-05-07T01:07:27;99127.31;;;6.43;96.32
75895;BME280;64573;50.328;15.014;2023-05-07T01:09:52;99123.38;;;6.65;96.84
75895;BME280;64573;50.328;15.014;2023-05-07T01:12:18;99125.28;;;6.73;96.71
75895;BME280;64573;50.328;15.014;2023-05-07T01:14:44;99131.75;;;7.32;95.69
75895;BME280;64573;50.328;15.014;2023-05-07T01:17:09;99137.97;;;7.40;94.52
75895;BME280;64573;50.328;15.014;2023-05-07T01:19:35;99130.28;;;7.37;93.77
75895;BME280;64573;50.328;15.014;2023-05-07T01:22:03;99142.72;;;7.29;93.55
75895;BME280;64573;50.328;15.014;2023-05-07T01:24:32;99131.00;;;7.22;93.04
75895;BME280;64573;50.328;15.014;2023-05-07T01:26:58;99139.38;;;7.27;92.69
75895;BME280;64573;50.328;15.014;2023-05-07T01:29:23;99134.34;;;6.98;93.12
75895;BME280;64573;50.328;15.014;2023-05-07T01:31:50;99124.44;;;6.72;94.28
75895;BME280;64573;50.328;15.014;2023-05-07T01:34:17;99129.78;;;6.54;94.76
75895;BME280;64573;50.328;15.014;2023-05-07T01:36:44;99130.84;;;6.61;95.19
75895;BME280;64573;50.328;15.014;2023-05-07T01:39:10;99138.06;;;6.51;95.39
75895;BME280;64573;50.328;15.014;2023-05-07T01:41:35;99143.53;;;6.50;95.30
75895;BME280;64573;50.328;15.014;2023-05-07T01:44:01;99148.94;;;6.58;95.90
75895;BME280;64573;50.328;15.014;2023-05-07T01:46:28;99147.59;;;6.54;96.08
75895;BME280;64573;50.328;15.014;2023-05-07T01:48:54;99145.13;;;6.43;95.63
75895;BME280;64573;50.328;15.014;2023-05-07T01:51:19;99145.09;;;6.52;96.22
75895;BME280;64573;50.328;15.014;2023-05-07T01:53:46;99142.50;;;6.60;96.32
75895;BME280;64573;50.328;15.014;2023-05-07T01:56:16;99141.94;;;6.39;96.11
75895;BME280;64573;50.328;15.014;2023-05-07T01:58:41;99141.06;;;6.21;96.38
75895;BME280;64573;50.328;15.014;2023-05-07T02:01:07;99137.34;;;6.14;96.11
75895;BME280;64573;50.328;15.014;2023-05-07T02:03:32;99131.25;;;6.21;96.61
75895;BME280;64573;50.328;15.014;2023-05-07T02:05:57;99130.78;;;6.08;96.60
75895;BME280;64573;50.328;15.014;2023-05-07T02:08:23;99136.38;;;6.32;96.57
75895;BME280;64573;50.328;15.014;2023-05-07T02:10:48;99130.97;;;6.24;96.74
75895;BME280;64573;50.328;15.014;2023-05-07T02:13:14;99135.91;;;6.19;96.98
75895;BME280;64573;50.328;15.014;2023-05-07T02:15:40;99138.53;;;6.01;97.02
75895;BME280;64573;50.328;15.014;2023-05-07T02:18:07;99134.50;;;5.97;96.61
75895;BME280;64573;50.328;15.014;2023-05-07T02:20:32;99138.03;;;5.78;96.58
75895;BME280;64573;50.328;15.014;2023-05-07T02:22:58;99141.59;;;5.69;96.74
75895;BME280;64573;50.328;15.014;2023-05-07T02:25:23;99143.44;;;5.59;96.88
75895;BME280;64573;50.328;15.014;2023-05-07T02:27:48;99136.66;;;5.74;96.92
75895;BME280;64573;50.328;15.014;2023-05-07T02:30:14;99140.50;;;5.99;97.52
75895;BME280;64573;50.328;15.014;2023-05-07T02:32:40;99138.53;;;6.01;97.72
75895;BME280;64573;50.328;15.014;2023-05-07T02:35:06;99136.41;;;6.05;97.66
75895;BME280;64573;50.328;15.014;2023-05-07T02:37:31;99136.75;;;6.20;97.92
75895;BME280;64573;50.328;15.014;2023-05-07T02:39:56;99145.50;;;6.30;97.90
75895;BME280;64573;50.328;15.014;2023-05-07T02:42:22;99147.81;;;6.43;98.16
75895;BME280;64573;50.328;15.014;2023-05-07T02:44:47;99148.19;;;6.48;98.07
75895;BME280;64573;50.328;15.014;2023-05-07T02:47:13;99146.28;;;6.58;97.90
75895;BME280;64573;50.328;15.014;2023-05-07T02:49:39;99149.56;;;6.70;97.99
75895;BME280;64573;50.328;15.014;2023-05-07T02:52:04;99138.47;;;6.74;98.12
75895;BME280;64573;50.328;15.014;2023-05-07T02:54:30;99141.38;;;6.81;97.47
75895;BME280;64573;50.328;15.014;2023-05-07T02:56:55;99143.38;;;6.87;97.35
75895;BME280;64573;50.328;15.014;2023-05-07T02:59:21;99145.16;;;6.96;97.59
75895;BME280;64573;50.328;15.014;2023-05-07T03:01:46;99144.22;;;7.05;97.50
75895;BME280;64573;50.328;15.014;2023-05-07T03:04:12;99151.28;;;7.14;97.13
75895;BME280;64573;50.328;15.014;2023-05-07T03:06:37;99158.66;;;7.21;96.94
75895;BME280;64573;50.328;15.014;2023-05-07T03:09:02;99156.50;;;7.24;97.27
75895;BME280;64573;50.328;15.014;2023-05-07T03:11:28;99157.06;;;7.28;96.90
75895;BME280;64573;50.328;15.014;2023-05-07T03:13:53;99157.44;;;7.33;96.88
75895;BME280;64573;50.328;15.014;2023-05-07T03:16:18;99160.31;;;7.39;96.83
75895;BME280;64573;50.328;15.014;2023-05-07T03:18:44;99150.00;;;7.44;96.48
75895;BME280;64573;50.328;15.014;2023-05-07T03:21:09;99164.16;;;7.45;96.78
75895;BME280;64573;50.328;15.014;2023-05-07T03:23:34;99163.19;;;7.46;96.96
75895;BME280;64573;50.328;15.014;2023-05-07T03:26:00;99163.25;;;7.54;96.94
75895;BME280;64573;50.328;15.014;2023-05-07T03:28:25;99164.28;;;7.61;96.80
75895;BME280;64573;50.328;15.014;2023-05-07T03:30:51;99172.50;;;7.68;96.61
75895;BME280;64573;50.328;15.014;2023-05-07T03:33:16;99168.06;;;7.77;96.10
75895;BME280;64573;50.328;15.014;2023-05-07T03:35:41;99167.56;;;7.81;96.38
75895;BME280;64573;50.328;15.014;2023-05-07T03:38:07;99169.50;;;7.97;96.14
75895;BME280;64573;50.328;15.014;2023-05-07T03:40:32;99174.38;;;8.10;95.81
75895;BME280;64573;50.328;15.014;2023-05-07T03:42:58;99165.03;;;8.14;96.02
75895;BME280;64573;50.328;15.014;2023-05-07T03:45:24;99168.53;;;8.06;95.36
75895;BME280;64573;50.328;15.014;2023-05-07T03:47:49;99153.84;;;8.18;95.24
75895;BME280;64573;50.328;15.014;2023-05-07T03:50:15;99152.22;;;8.25;94.91
75895;BME280;64573;50.328;15.014;2023-05-07T03:52:40;99163.78;;;8.26;93.85
75895;BME280;64573;50.328;15.014;2023-05-07T03:55:06;99179.72;;;8.10;94.14
75895;BME280;64573;50.328;15.014;2023-05-07T03:57:32;99177.84;;;8.02;94.13
75895;BME280;64573;50.328;15.014;2023-05-07T03:59:57;99166.84;;;8.05;94.05
75895;BME280;64573;50.328;15.014;2023-05-07T04:02:22;99165.25;;;8.20;93.97
75895;BME280;64573;50.328;15.014;2023-05-07T04:04:48;99171.09;;;8.24;93.61
75895;BME280;64573;50.328;15.014;2023-05-07T04:07:14;99172.44;;;8.28;93.92
75895;BME280;64573;50.328;15.014;2023-05-07T04:09:40;99175.97;;;8.28;93.83
75895;BME280;64573;50.328;15.014;2023-05-07T04:12:05;99184.44;;;8.24;93.44
75895;BME280;64573;50.328;15.014;2023-05-07T04:14:31;99175.09;;;8.20;93.97
75895;BME280;64573;50.328;15.014;2023-05-07T04:16:58;99179.47;;;8.29;93.12
75895;BME280;64573;50.328;15.014;2023-05-07T04:19:23;99177.38;;;8.41;93.69
75895;BME280;64573;50.328;15.014;2023-05-07T04:21:49;99177.88;;;8.52;92.86
75895;BME280;64573;50.328;15.014;2023-05-07T04:24:14;99176.41;;;8.66;93.04
75895;BME280;64573;50.328;15.014;2023-05-07T04:26:40;99174.94;;;8.72;92.70
75895;BME280;64573;50.328;15.014;2023-05-07T04:29:05;99179.44;;;8.71;92.37
75895;BME280;64573;50.328;15.014;2023-05-07T04:31:30;99183.13;;;8.70;91.49
75895;BME280;64573;50.328;15.014;2023-05-07T04:33:57;99178.28;;;8.82;91.15
75895;BME280;64573;50.328;15.014;2023-05-07T04:36:22;99179.75;;;8.68;91.16
75895;BME280;64573;50.328;15.014;2023-05-07T04:38:47;99179.28;;;8.73;90.94
75895;BME280;64573;50.328;15.014;2023-05-07T04:41:13;99184.81;;;8.79;91.32
75895;BME280;64573;50.328;15.014;2023-05-07T04:43:38;99187.81;;;8.84;90.96
75895;BME280;64573;50.328;15.014;2023-05-07T04:46:04;99195.03;;;9.08;90.98
75895;BME280;64573;50.328;15.014;2023-05-07T04:48:30;99192.00;;;9.03;91.07
75895;BME280;64573;50.328;15.014;2023-05-07T04:50:55;99199.53;;;9.00;90.23
75895;BME280;64573;50.328;15.014;2023-05-07T04:53:20;99198.00;;;8.97;90.91
75895;BME280;64573;50.328;15.014;2023-05-07T04:55:46;99202.06;;;9.18;90.80
75895;BME280;64573;50.328;15.014;2023-05-07T04:58:12;99201.03;;;9.19;90.50
75895;BME280;64573;50.328;15.014;2023-05-07T05:00:38;99201.88;;;9.19;88.72
75895;BME280;64573;50.328;15.014;2023-05-07T05:03:05;99201.84;;;9.68;88.65
75895;BME280;64573;50.328;15.014;2023-05-07T05:05:31;99205.03;;;9.72;87.26
75895;BME280;64573;50.328;15.014;2023-05-07T05:07:56;99205.72;;;9.33;88.27
75895;BME280;64573;50.328;15.014;2023-05-07T05:10:22;99199.19;;;9.19;88.33
75895;BME280;64573;50.328;15.014;2023-05-07T05:12:47;99212.09;;;9.16;89.06
75895;BME280;64573;50.328;15.014;2023-05-07T05:15:13;99220.13;;;9.24;88.08
75895;BME280;64573;50.328;15.014;2023-05-07T05:17:39;99212.44;;;9.37;88.90
75895;BME280;64573;50.328;15.014;2023-05-07T05:20:05;99208.94;;;9.28;88.21
75895;BME280;64573;50.328;15.014;2023-05-07T05:22:31;99207.91;;;9.29;87.65
75895;BME280;64573;50.328;15.014;2023-05-07T05:24:57;99215.75;;;9.47;87.70
75895;BME280;64573;50.328;15.014;2023-05-07T05:27:22;99214.25;;;9.53;86.37
75895;BME280;64573;50.328;15.014;2023-05-07T05:29:47;99219.75;;;9.76;86.66
75895;BME280;64573;50.328;15.014;2023-05-07T05:32:13;99222.59;;;9.74;85.65
75895;BME280;64573;50.328;15.014;2023-05-07T05:34:38;99228.09;;;9.89;84.76
75895;BME280;64573;50.328;15.014;2023-05-07T05:37:03;99230.91;;;10.04;84.90
75895;BME280;64573;50.328;15.014;2023-05-07T05:39:29;99238.97;;;9.95;84.49
75895;BME280;64573;50.328;15.014;2023-05-07T05:41:54;99227.91;;;10.07;83.66
75895;BME280;64573;50.328;15.014;2023-05-07T05:44:20;99228.88;;;10.06;83.13
75895;BME280;64573;50.328;15.014;2023-05-07T05:46:45;99235.66;;;10.41;81.96
75895;BME280;64573;50.328;15.014;2023-05-07T05:49:10;99238.06;;;10.36;82.77
75895;BME280;64573;50.328;15.014;2023-05-07T05:51:36;99233.78;;;10.49;81.49
75895;BME280;64573;50.328;15.014;2023-05-07T05:54:01;99233.69;;;10.74;80.98
75895;BME280;64573;50.328;15.014;2023-05-07T05:56:26;99235.44;;;10.90;79.65
75895;BME280;64573;50.328;15.014;2023-05-07T05:58:52;99238.91;;;10.98;79.71
75895;BME280;64573;50.328;15.014;2023-05-07T06:01:18;99239.59;;;10.92;79.66
75895;BME280;64573;50.328;15.014;2023-05-07T06:03:43;99240.16;;;10.88;79.68
75895;BME280;64573;50.328;15.014;2023-05-07T06:06:09;99240.00;;;10.81;80.15
75895;BME280;64573;50.328;15.014;2023-05-07T06:08:34;99246.22;;;10.82;81.47
75895;BME280;64573;50.328;15.014;2023-05-07T06:11:01;99256.09;;;10.42;82.78
75895;BME280;64573;50.328;15.014;2023-05-07T06:13:26;99256.41;;;10.00;83.49
75895;BME280;64573;50.328;15.014;2023-05-07T06:15:52;99259.53;;;10.11;83.37
75895;BME280;64573;50.328;15.014;2023-05-07T06:18:17;99262.94;;;10.53;82.44
75895;BME280;64573;50.328;15.014;2023-05-07T06:20:43;99259.44;;;10.83;82.60
75895;BME280;64573;50.328;15.014;2023-05-07T06:23:08;99259.91;;;10.95;80.88
75895;BME280;64573;50.328;15.014;2023-05-07T06:25:33;99266.06;;;11.26;79.39
75895;BME280;64573;50.328;15.014;2023-05-07T06:27:58;99258.22;;;10.94;80.26
75895;BME280;64573;50.328;15.014;2023-05-07T06:30:24;99274.66;;;10.91;80.19
75895;BME280;64573;50.328;15.014;2023-05-07T06:32:49;99267.91;;;10.64;81.20
75895;BME280;64573;50.328;15.014;2023-05-07T06:35:15;99278.13;;;10.68;81.90
75895;BME280;64573;50.328;15.014;2023-05-07T06:37:41;99284.47;;;10.75;80.36
75895;BME280;64573;50.328;15.014;2023-05-07T06:40:08;99280.16;;;10.97;78.77
75895;BME280;64573;50.328;15.014;2023-05-07T06:42:33;99283.75;;;11.13;79.71
75895;BME280;64573;50.328;15.014;2023-05-07T06:44:59;99283.13;;;10.80;79.29
75895;BME280;64573;50.328;15.014;2023-05-07T06:47:24;99284.19;;;10.93;79.97
75895;BME280;64573;50.328;15.014;2023-05-07T06:49:50;99294.56;;;11.27;78.16
75895;BME280;64573;50.328;15.014;2023-05-07T06:52:15;99301.63;;;11.51;77.56
75895;BME280;64573;50.328;15.014;2023-05-07T06:54:41;99307.22;;;12.25;75.37
75895;BME280;64573;50.328;15.014;2023-05-07T06:57:07;99297.94;;;12.57;74.23
75895;BME280;64573;50.328;15.014;2023-05-07T06:59:32;99305.25;;;12.93;73.02
75895;BME280;64573;50.328;15.014;2023-05-07T07:01:58;99299.16;;;12.84;72.73
75895;BME280;64573;50.328;15.014;2023-05-07T07:04:23;99294.72;;;13.13;71.79
75895;BME280;64573;50.328;15.014;2023-05-07T07:06:49;99299.91;;;13.14;71.66
75895;BME280;64573;50.328;15.014;2023-05-07T07:09:15;99310.47;;;12.50;72.55
75895;BME280;64573;50.328;15.014;2023-05-07T07:11:40;99301.66;;;12.12;74.25
75895;BME280;64573;50.328;15.014;2023-05-07T07:14:05;99309.91;;;12.25;72.95
75895;BME280;64573;50.328;15.014;2023-05-07T07:16:31;99307.00;;;11.97;74.59
75895;BME280;64573;50.328;15.014;2023-05-07T07:18:56;99310.06;;;12.24;74.05
75895;BME280;64573;50.328;15.014;2023-05-07T07:21:22;99312.31;;;12.79;71.83
75895;BME280;64573;50.328;15.014;2023-05-07T07:23:47;99310.53;;;12.86;70.49
75895;BME280;64573;50.328;15.014;2023-05-07T07:26:12;99313.28;;;13.08;70.50
75895;BME280;64573;50.328;15.014;2023-05-07T07:28:47;99312.22;;;13.38;69.33
75895;BME280;64573;50.328;15.014;2023-05-07T07:31:13;99315.13;;;13.58;67.87
75895;BME280;64573;50.328;15.014;2023-05-07T07:33:38;99314.66;;;13.76;67.50
75895;BME280;64573;50.328;15.014;2023-05-07T07:36:05;99314.47;;;13.99;66.35
75895;BME280;64573;50.328;15.014;2023-05-07T07:38:31;99317.41;;;14.32;64.65
75895;BME280;64573;50.328;15.014;2023-05-07T07:40:56;99317.75;;;13.73;66.26
75895;BME280;64573;50.328;15.014;2023-05-07T07:43:22;99315.34;;;14.06;64.76
75895;BME280;64573;50.328;15.014;2023-05-07T07:45:47;99315.44;;;13.91;64.31
75895;BME280;64573;50.328;15.014;2023-05-07T07:48:12;99321.66;;;13.28;66.49
75895;BME280;64573;50.328;15.014;2023-05-07T07:50:38;99323.84;;;13.60;66.10
75895;BME280;64573;50.328;15.014;2023-05-07T07:53:03;99338.00;;;13.11;66.85
75895;BME280;64573;50.328;15.014;2023-05-07T07:55:29;99333.41;;;13.41;65.81
75895;BME280;64573;50.328;15.014;2023-05-07T07:57:56;99329.25;;;13.24;66.46
75895;BME280;64573;50.328;15.014;2023-05-07T08:00:21;99329.88;;;13.41;67.32
75895;BME280;64573;50.328;15.014;2023-05-07T08:02:47;99328.72;;;13.71;66.90
75895;BME280;64573;50.328;15.014;2023-05-07T08:05:12;99325.59;;;14.17;64.89
75895;BME280;64573;50.328;15.014;2023-05-07T08:07:37;99331.84;;;13.96;63.85
75895;BME280;64573;50.328;15.014;2023-05-07T08:10:03;99337.78;;;13.85;65.62
75895;BME280;64573;50.328;15.014;2023-05-07T08:12:29;99328.13;;;14.25;65.67
75895;BME280;64573;50.328;15.014;2023-05-07T08:14:54;99325.59;;;14.45;62.61
75895;BME280;64573;50.328;15.014;2023-05-07T08:17:20;99338.25;;;14.73;61.98
75895;BME280;64573;50.328;15.014;2023-05-07T08:19:47;99335.38;;;13.97;63.64
75895;BME280;64573;50.328;15.014;2023-05-07T08:22:12;99338.38;;;14.58;62.98
75895;BME280;64573;50.328;15.014;2023-05-07T08:24:38;99342.81;;;14.72;62.88
75895;BME280;64573;50.328;15.014;2023-05-07T08:27:03;99341.91;;;15.00;58.71
75895;BME280;64573;50.328;15.014;2023-05-07T08:29:29;99349.03;;;14.45;60.89
75895;BME280;64573;50.328;15.014;2023-05-07T08:31:54;99345.69;;;14.64;61.19
75895;BME280;64573;50.328;15.014;2023-05-07T08:34:21;99346.03;;;14.96;61.01
75895;BME280;64573;50.328;15.014;2023-05-07T08:36:47;99352.94;;;15.05;59.78
75895;BME280;64573;50.328;15.014;2023-05-07T08:39:14;99352.38;;;15.16;59.50
75895;BME280;64573;50.328;15.014;2023-05-07T08:41:40;99356.50;;;14.43;61.80
75895;BME280;64573;50.328;15.014;2023-05-07T08:44:11;99358.75;;;13.68;66.33
75895;BME280;64573;50.328;15.014;2023-05-07T08:46:39;99363.44;;;13.81;65.93
75895;BME280;64573;50.328;15.014;2023-05-07T08:49:05;99358.66;;;13.76;64.56
75895;BME280;64573;50.328;15.014;2023-05-07T08:51:31;99374.50;;;12.69;67.98
75895;BME280;64573;50.328;15.014;2023-05-07T08:53:56;99358.06;;;12.50;67.74
75895;BME280;64573;50.328;15.014;2023-05-07T08:56:21;99368.81;;;13.23;68.63
75895;BME280;64573;50.328;15.014;2023-05-07T08:58:47;99363.91;;;13.27;66.14
75895;BME280;64573;50.328;15.014;2023-05-07T09:01:15;99376.56;;;12.97;67.71
75895;BME280;64573;50.328;15.014;2023-05-07T09:03:42;99375.03;;;12.50;69.07
75895;BME280;64573;50.328;15.014;2023-05-07T09:06:09;99366.38;;;12.25;69.37
75895;BME280;64573;50.328;15.014;2023-05-07T09:08:35;99372.44;;;12.04;69.42
75895;BME280;64573;50.328;15.014;2023-05-07T09:11:01;99374.16;;;12.20;68.86
75895;BME280;64573;50.328;15.014;2023-05-07T09:13:28;99382.59;;;12.69;66.49
75895;BME280;64573;50.328;15.014;2023-05-07T09:15:53;99379.97;;;13.06;64.43
75895;BME280;64573;50.328;15.014;2023-05-07T09:18:18;99383.88;;;13.54;63.01
75895;BME280;64573;50.328;15.014;2023-05-07T09:20:44;99395.56;;;13.61;62.03
75895;BME280;64573;50.328;15.014;2023-05-07T09:23:09;99388.91;;;13.57;61.81
75895;BME280;64573;50.328;15.014;2023-05-07T09:25:35;99396.63;;;13.82;61.42
75895;BME280;64573;50.328;15.014;2023-05-07T09:28:02;99390.13;;;13.76;59.95
75895;BME280;64573;50.328;15.014;2023-05-07T09:30:29;99391.28;;;13.88;58.76
75895;BME280;64573;50.328;15.014;2023-05-07T09:32:55;99389.25;;;13.69;59.58
75895;BME280;64573;50.328;15.014;2023-05-07T09:35:21;99387.41;;;14.19;58.38
75895;BME280;64573;50.328;15.014;2023-05-07T09:37:49;99388.06;;;14.42;57.67
75895;BME280;64573;50.328;15.014;2023-05-07T09:40:26;99387.22;;;14.42;57.41
75895;BME280;64573;50.328;15.014;2023-05-07T09:42:53;99387.78;;;13.88;58.50
75895;BME280;64573;50.328;15.014;2023-05-07T09:45:36;99382.56;;;13.86;59.03
75895;BME280;64573;50.328;15.014;2023-05-07T09:48:05;99375.91;;;14.53;57.37
75895;BME280;64573;50.328;15.014;2023-05-07T09:50:36;99389.50;;;14.17;55.97
75895;BME280;64573;50.328;15.014;2023-05-07T09:53:05;99376.78;;;13.17;60.09
75895;BME280;64573;50.328;15.014;2023-05-07T09:55:31;99382.84;;;13.70;58.94
75895;BME280;64573;50.328;15.014;2023-05-07T09:57:57;99387.41;;;13.04;59.60
75895;BME280;64573;50.328;15.014;2023-05-07T10:00:25;99385.69;;;13.68;58.38
75895;BME280;64573;50.328;15.014;2023-05-07T10:02:52;99399.03;;;14.19;56.01
75895;BME280;64573;50.328;15.014;2023-05-07T10:05:18;99391.69;;;13.85;56.66
75895;BME280;64573;50.328;15.014;2023-05-07T10:07:44;99390.19;;;13.83;56.55
75895;BME280;64573;50.328;15.014;2023-05-07T10:10:10;99392.06;;;13.82;57.17
75895;BME280;64573;50.328;15.014;2023-05-07T10:12:35;99392.59;;;13.35;57.52
75895;BME280;64573;50.328;15.014;2023-05-07T10:15:13;99398.63;;;14.16;56.90
75895;BME280;64573;50.328;15.014;2023-05-07T10:17:40;99400.28;;;14.17;55.75
75895;BME280;64573;50.328;15.014;2023-05-07T10:20:06;99386.94;;;14.86;53.86
75895;BME280;64573;50.328;15.014;2023-05-07T10:22:41;99393.22;;;15.48;51.73
75895;BME280;64573;50.328;15.014;2023-05-07T10:25:25;99400.50;;;14.99;52.06
75895;BME280;64573;50.328;15.014;2023-05-07T10:27:55;99394.69;;;15.02;50.89
75895;BME280;64573;50.328;15.014;2023-05-07T10:32:59;99390.53;;;15.00;51.78
75895;BME280;64573;50.328;15.014;2023-05-07T10:35:32;99393.06;;;14.73;52.77
75895;BME280;64573;50.328;15.014;2023-05-07T10:38:01;99390.78;;;14.21;54.34
75895;BME280;64573;50.328;15.014;2023-05-07T10:40:27;99391.50;;;14.57;54.74
75895;BME280;64573;50.328;15.014;2023-05-07T10:43:03;99397.63;;;14.73;53.53
75895;BME280;64573;50.328;15.014;2023-05-07T10:45:32;99392.63;;;14.70;53.59
75895;BME280;64573;50.328;15.014;2023-05-07T10:50:34;99388.59;;;15.35;52.01
75895;BME280;64573;50.328;15.014;2023-05-07T10:55:45;99401.25;;;15.82;49.91
75895;BME280;64573;50.328;15.014;2023-05-07T11:00:50;99388.19;;;16.06;49.42
75895;BME280;64573;50.328;15.014;2023-05-07T11:03:16;99396.31;;;16.25;48.49
75895;BME280;64573;50.328;15.014;2023-05-07T11:05:42;99398.66;;;15.54;49.92
75895;BME280;64573;50.328;15.014;2023-05-07T11:08:08;99388.81;;;16.14;50.25
75895;BME280;64573;50.328;15.014;2023-05-07T11:10:56;99398.81;;;16.20;49.35
75895;BME280;64573;50.328;15.014;2023-05-07T11:16:20;99400.25;;;15.35;49.20
75895;BME280;64573;50.328;15.014;2023-05-07T11:18:48;99402.34;;;14.99;50.75
75895;BME280;64573;50.328;15.014;2023-05-07T11:23:57;99400.06;;;15.37;50.88
75895;BME280;64573;50.328;15.014;2023-05-07T11:26:24;99399.22;;;15.36;50.96
75895;BME280;64573;50.328;15.014;2023-05-07T11:28:51;99395.28;;;16.20;48.54
75895;BME280;64573;50.328;15.014;2023-05-07T11:31:23;99400.66;;;15.80;48.39
75895;BME280;64573;50.328;15.014;2023-05-07T11:33:49;99401.97;;;15.56;50.73
75895;BME280;64573;50.328;15.014;2023-05-07T11:36:15;99396.13;;;16.47;46.77
75895;BME280;64573;50.328;15.014;2023-05-07T11:38:40;99399.63;;;15.88;48.29
75895;BME280;64573;50.328;15.014;2023-05-07T11:41:07;99397.00;;;15.53;51.62
75895;BME280;64573;50.328;15.014;2023-05-07T11:43:33;99391.47;;;14.51;50.90
75895;BME280;64573;50.328;15.014;2023-05-07T11:46:11;99393.13;;;15.76;48.79
75895;BME280;64573;50.328;15.014;2023-05-07T11:48:37;99394.66;;;16.18;47.55
75895;BME280;64573;50.328;15.014;2023-05-07T11:51:06;99395.25;;;16.93;44.02
75895;BME280;64573;50.328;15.014;2023-05-07T11:53:38;99386.53;;;16.18;47.42
75895;BME280;64573;50.328;15.014;2023-05-07T11:56:14;99384.63;;;15.92;47.66
75895;BME280;64573;50.328;15.014;2023-05-07T11:58:40;99400.91;;;16.25;46.95
75895;BME280;64573;50.328;15.014;2023-05-07T12:01:10;99391.50;;;15.81;48.03
75895;BME280;64573;50.328;15.014;2023-05-07T12:03:37;99390.06;;;16.12;46.76
75895;BME280;64573;50.328;15.014;2023-05-07T12:06:07;99393.44;;;16.73;46.18
75895;BME280;64573;50.328;15.014;2023-05-07T12:08:36;99401.38;;;18.41;42.04
75895;BME280;64573;50.328;15.014;2023-05-07T12:11:02;99396.13;;;16.67;45.59
75895;BME280;64573;50.328;15.014;2023-05-07T12:13:27;99397.53;;;15.35;48.48
75895;BME280;64573;50.328;15.014;2023-05-07T12:15:54;99399.78;;;15.25;48.41
75895;BME280;64573;50.328;15.014;2023-05-07T12:18:20;99398.13;;;15.24;49.07
75895;BME280;64573;50.328;15.014;2023-05-07T12:20:46;99408.88;;;15.11;49.52
75895;BME280;64573;50.328;15.014;2023-05-07T12:23:13;99408.91;;;15.17;49.34
75895;BME280;64573;50.328;15.014;2023-05-07T12:25:43;99397.78;;;16.35;48.09
75895;BME280;64573;50.328;15.014;2023-05-07T12:28:16;99415.25;;;16.65;46.47
75895;BME280;64573;50.328;15.014;2023-05-07T12:30:44;99412.13;;;16.28;46.77
75895;BME280;64573;50.328;15.014;2023-05-07T12:33:10;99409.44;;;16.95;44.54
75895;BME280;64573;50.328;15.014;2023-05-07T12:35:40;99400.47;;;16.88;44.34
75895;BME280;64573;50.328;15.014;2023-05-07T12:38:13;99413.19;;;17.45;43.52
75895;BME280;64573;50.328;15.014;2023-05-07T12:40:41;99416.03;;;15.32;49.38
75895;BME280;64573;50.328;15.014;2023-05-07T12:43:08;99408.19;;;15.02;49.65
75895;BME280;64573;50.328;15.014;2023-05-07T12:45:41;99413.19;;;15.47;50.96
75895;BME280;64573;50.328;15.014;2023-05-07T12:48:06;99419.00;;;16.51;45.93
75895;BME280;64573;50.328;15.014;2023-05-07T12:50:34;99418.56;;;17.00;44.02
75895;BME280;64573;50.328;15.014;2023-05-07T12:53:00;99416.03;;;17.19;43.84
75895;BME280;64573;50.328;15.014;2023-05-07T12:55:30;99413.41;;;16.33;46.03
75895;BME280;64573;50.328;15.014;2023-05-07T12:57:56;99411.72;;;16.98;44.91
75895;BME280;64573;50.328;15.014;2023-05-07T13:00:36;99416.97;;;17.44;44.14
75895;BME280;64573;50.328;15.014;2023-05-07T13:03:01;99409.25;;;15.56;48.19
75895;BME280;64573;50.328;15.014;2023-05-07T13:05:27;99418.63;;;15.53;48.26
75895;BME280;64573;50.328;15.014;2023-05-07T13:07:56;99417.69;;;15.33;48.33